Time;durP1;ratioP1;P1;durP2;ratioP2;P2;SDS_P1;SDS_P2;PMS_P1;PMS_P2;Temp;Humidity;BMP_temperature;BMP_pressure;BME280_temperature;BME280_humidity;BME280_pressure;Samples;Min_cycle;Max_cycle;Signal;HPM_P1;HPM_P2
2023/01/05 00:01:16;;;;;;;23.63;15.48;;;;;;;7.07;59.45;94654.56;5025185;28;20044;-76
2023/01/05 00:03:42;;;;;;;23.67;16.33;;;;;;;7.19;58.97;94664.84;5027384;28;20367;-77
2023/01/05 00:06:13;;;;;;;23.42;15.77;;;;;;;7.24;58.95;94662.16;5023812;28;20037;-77
2023/01/05 00:08:39;;;;;;;24.63;16.48;;;;;;;7.19;59.46;94660.31;5027385;28;20049;-77
2023/01/05 00:22:30;;;;;;;26.58;17.73;;;;;;;7.30;60.08;94645.22;5026128;28;20032;-77
2023/01/05 00:25:03;;;;;;;27.20;18.23;;;;;;;7.24;59.86;94625.13;5027535;28;20117;-77
2023/01/05 00:27:30;;;;;;;26.80;16.35;;;;;;;7.36;59.81;94630.09;5026514;28;20435;-77
2023/01/05 00:29:55;;;;;;;26.52;17.00;;;;;;;7.33;59.73;94625.38;5029452;28;20328;-77
2023/01/05 00:32:21;;;;;;;23.85;16.63;;;;;;;7.43;59.46;94631.41;5028911;28;20053;-77
2023/01/05 00:34:47;;;;;;;23.80;17.17;;;;;;;7.35;59.30;94624.00;5027509;28;20060;-76
2023/01/05 00:37:12;;;;;;;23.58;15.70;;;;;;;7.47;59.23;94623.69;5027780;28;20087;-77
2023/01/05 00:39:37;;;;;;;25.92;16.55;;;;;;;7.43;59.00;94610.22;5028472;28;20037;-77
2023/01/05 00:42:03;;;;;;;23.67;16.55;;;;;;;7.50;59.31;94621.28;5027362;28;20445;-77
2023/01/05 00:44:29;;;;;;;25.77;16.95;;;;;;;7.51;59.09;94620.22;5027674;28;20602;-77
2023/01/05 00:46:54;;;;;;;24.23;17.52;;;;;;;7.49;59.46;94619.69;5026652;28;20065;-77
2023/01/05 00:49:19;;;;;;;25.50;17.65;;;;;;;7.44;59.01;94617.06;5023740;28;20057;-76
2023/01/05 00:51:45;;;;;;;25.33;17.50;;;;;;;7.45;59.05;94610.72;5028258;28;20517;-76
2023/01/05 00:54:11;;;;;;;26.05;17.05;;;;;;;7.32;58.93;94582.22;5020068;28;20037;-77
2023/01/05 00:56:36;;;;;;;26.27;17.05;;;;;;;7.51;59.09;94622.88;5027392;28;20079;-77
2023/01/05 00:59:02;;;;;;;24.17;16.83;;;;;;;7.59;58.96;94627.56;5022437;28;20041;-76
2023/01/05 01:01:27;;;;;;;24.23;17.10;;;;;;;7.60;58.99;94618.56;5028765;28;20587;-77
2023/01/05 01:03:54;;;;;;;25.38;16.48;;;;;;;7.47;58.94;94611.25;5034775;28;20791;-77
2023/01/05 01:06:20;;;;;;;27.42;18.45;;;;;;;7.30;58.85;94573.75;5032587;28;20064;-77
2023/01/05 01:08:45;;;;;;;26.02;17.48;;;;;;;7.53;58.88;94612.78;5027246;28;20234;-77
2023/01/05 01:11:11;;;;;;;25.50;17.15;;;;;;;7.57;58.98;94621.00;5026233;28;20040;-77
2023/01/05 01:13:39;;;;;;;21.92;16.02;;;;;;;7.57;58.82;94615.69;5025790;28;20041;-77
2023/01/05 01:16:13;;;;;;;20.67;16.13;;;;;;;7.60;58.95;94620.44;5027261;28;20029;-77
2023/01/05 01:18:39;;;;;;;24.20;16.02;;;;;;;7.48;58.96;94607.56;5026928;28;20041;-77
2023/01/05 01:21:05;;;;;;;23.45;15.68;;;;;;;7.72;58.78;94618.25;5027402;28;20409;-77
2023/01/05 01:23:32;;;;;;;19.92;14.60;;;;;;;7.65;58.76;94623.03;5033381;28;20044;-77
2023/01/05 01:25:58;;;;;;;23.48;16.80;;;;;;;7.57;58.59;94608.56;5029229;28;20037;-76
2023/01/05 01:28:24;;;;;;;27.55;16.25;;;;;;;7.59;58.91;94590.50;5025661;28;20017;-77
2023/01/05 01:30:49;;;;;;;22.73;16.80;;;;;;;7.54;59.33;94587.91;5033250;28;20095;-77
2023/01/05 01:33:15;;;;;;;23.48;16.10;;;;;;;7.66;59.04;94601.59;5038002;28;20045;-77
2023/01/05 01:35:40;;;;;;;20.50;14.93;;;;;;;7.62;59.29;94592.63;5024528;28;20041;-76
2023/01/05 01:38:05;;;;;;;23.20;16.40;;;;;;;7.73;59.05;94591.50;5026299;28;20516;-77
2023/01/05 01:40:37;;;;;;;23.60;15.57;;;;;;;7.75;58.73;94583.28;5025083;28;20040;-78
2023/01/05 01:43:15;;;;;;;24.13;15.95;;;;;;;7.76;58.63;94578.78;5032973;28;20510;-77
2023/01/05 01:45:41;;;;;;;20.83;14.88;;;;;;;7.71;58.74;94564.50;5026292;28;20267;-77
2023/01/05 01:48:10;;;;;;;21.50;15.30;;;;;;;7.73;58.52;94563.47;5027240;28;20029;-77
2023/01/05 01:50:41;;;;;;;22.27;14.88;;;;;;;7.72;58.56;94560.00;5027566;28;20038;-77
2023/01/05 01:53:14;;;;;;;21.85;14.95;;;;;;;7.58;58.75;94546.56;5026662;28;20045;-77
2023/01/05 01:55:40;;;;;;;19.98;13.63;;;;;;;7.67;58.51;94541.50;5026367;28;20405;-77
2023/01/05 01:58:10;;;;;;;22.80;14.45;;;;;;;7.79;58.24;94560.47;5033563;28;20205;-78
2023/01/05 02:00:38;;;;;;;22.40;14.55;;;;;;;7.68;58.43;94548.34;5022453;28;20033;-77
2023/01/05 02:03:04;;;;;;;21.52;14.57;;;;;;;7.72;58.71;94549.41;5026858;28;20056;-77
2023/01/05 02:05:32;;;;;;;21.95;14.07;;;;;;;7.43;58.30;94520.25;5027000;28;20028;-77
2023/01/05 02:07:58;;;;;;;24.48;14.52;;;;;;;7.62;58.16;94547.63;5026270;28;20741;-77
2023/01/05 02:10:34;;;;;;;19.58;14.00;;;;;;;7.57;58.02;94525.69;5023975;28;20028;-77
2023/01/05 02:13:05;;;;;;;21.15;13.60;;;;;;;7.58;58.76;94546.56;5027034;28;20033;-76
2023/01/05 02:15:39;;;;;;;22.75;15.35;;;;;;;7.61;58.73;94543.38;5033834;28;20041;-77
2023/01/05 02:18:20;;;;;;;22.90;15.25;;;;;;;7.55;58.67;94528.59;5024271;28;20043;-77
2023/01/05 02:20:52;;;;;;;28.05;16.88;;;;;;;7.52;58.79;94529.16;5027582;28;20172;-77
2023/01/05 02:23:38;;;;;;;27.55;16.95;;;;;;;7.52;58.95;94525.72;5025622;28;20664;-77
2023/01/05 02:26:24;;;;;;;25.30;17.00;;;;;;;7.45;59.16;94518.09;5024214;28;20041;-77
2023/01/05 02:29:10;;;;;;;24.17;18.30;;;;;;;7.49;58.80;94529.69;5024254;28;20113;-77
2023/01/05 02:31:39;;;;;;;;;;;;;;;7.41;58.98;94522.34;5012372;28;20514;-77
2023/01/05 02:34:37;;;;;;;29.17;19.33;;;;;;;7.34;59.45;94521.88;5024670;28;19920;-78
2023/01/05 02:37:14;;;;;;;30.75;19.05;;;;;;;7.40;59.65;94526.06;5025350;28;20045;-77
2023/01/05 02:39:49;;;;;;;28.15;19.25;;;;;;;7.45;59.70;94518.09;5025003;28;20501;-77
2023/01/05 02:42:21;;;;;;;26.67;17.77;;;;;;;7.47;59.51;94520.47;5031723;28;20045;-77
2023/01/05 02:44:46;;;;;;;29.33;19.35;;;;;;;7.58;59.10;94522.75;5033601;28;20371;-77
2023/01/05 02:47:24;;;;;;;26.60;18.52;;;;;;;7.52;59.51;94534.47;5024052;28;20036;-76
2023/01/05 02:49:53;;;;;;;32.30;18.80;;;;;;;7.49;59.86;94524.41;5025816;28;20045;-77
2023/01/05 02:52:20;;;;;;;28.70;19.25;;;;;;;7.52;59.90;94523.88;5024542;28;20527;-77
2023/01/05 02:54:59;;;;;;;28.23;19.05;;;;;;;7.48;60.01;94514.91;5026078;28;20048;-77
2023/01/05 02:57:46;;;;;;;26.65;18.98;;;;;;;7.05;60.23;94466.25;5021975;28;20456;-73
2023/01/05 03:00:32;;;;;;;27.33;17.63;;;;;;;7.41;60.68;94503.84;5031454;28;20080;-75
2023/01/05 03:03:00;;;;;;;;;;;;;;;7.43;60.25;94493.78;5026722;28;20296;-74
2023/01/05 03:05:42;;;;;;;26.30;18.42;;;;;;;7.23;60.29;94467.47;5023142;28;19921;-74
2023/01/05 03:08:20;;;;;;;26.52;17.83;;;;;;;7.43;60.06;94491.13;5026212;28;20063;-74
2023/01/05 03:13:53;;;;;;;27.33;18.08;;;;;;;7.40;59.52;94477.63;5025705;28;20527;-75
2023/01/05 03:16:28;;;;;;;27.02;18.80;;;;;;;7.41;59.56;94482.66;5024471;28;20120;-78
2023/01/05 03:35:33;;;;;;;28.15;19.10;;;;;;;6.66;63.50;94452.19;5026600;28;20897;-77
2023/01/05 03:38:05;;;;;;;30.38;20.15;;;;;;;6.36;64.84;94443.34;5029867;28;20033;-77
2023/01/05 03:40:33;;;;;;;31.00;20.70;;;;;;;6.68;64.16;94456.16;5028779;28;20020;-77
2023/01/05 03:43:00;;;;;;;33.67;20.38;;;;;;;6.86;62.79;94434.38;5028683;28;20017;-77
2023/01/05 03:45:38;;;;;;;35.28;22.17;;;;;;;7.13;62.03;94452.44;5028924;28;20144;-76
2023/01/05 03:48:04;;;;;;;28.77;20.73;;;;;;;6.92;61.34;94408.69;5027140;28;20418;-77
2023/01/05 03:50:30;;;;;;;29.42;19.58;;;;;;;7.29;60.98;94455.75;5027079;28;20041;-75
2023/01/05 03:52:55;;;;;;;31.05;21.42;;;;;;;7.21;60.96;94443.91;5030371;28;20119;-77
2023/01/05 03:55:21;;;;;;;27.60;19.73;;;;;;;7.48;60.39;94469.13;5030296;28;20025;-77
2023/01/05 03:57:47;;;;;;;29.70;19.45;;;;;;;7.35;60.42;94441.41;5028506;28;20044;-77
2023/01/05 04:00:13;;;;;;;34.40;20.95;;;;;;;7.35;60.65;94437.97;5028747;28;20520;-77
2023/01/05 04:02:38;;;;;;;28.33;19.55;;;;;;;7.50;60.41;94446.59;5029639;28;20530;-77
2023/01/05 04:05:04;;;;;;;28.05;19.38;;;;;;;7.55;60.47;94449.19;5028058;28;20368;-77
2023/01/05 04:07:29;;;;;;;36.42;19.92;;;;;;;7.44;60.04;94421.22;5027146;28;20477;-77
2023/01/05 04:09:55;;;;;;;28.58;20.00;;;;;;;7.39;60.26;94434.50;5028594;28;20036;-77
2023/01/05 04:12:20;;;;;;;30.00;20.80;;;;;;;7.28;60.52;94414.50;5027540;28;20445;-77
2023/01/05 04:14:45;;;;;;;28.23;19.38;;;;;;;7.51;59.83;94434.16;5027092;28;20552;-77
2023/01/05 04:17:11;;;;;;;30.88;20.33;;;;;;;7.52;59.25;94433.09;5028503;28;20037;-77
2023/01/05 04:19:36;;;;;;;32.42;20.70;;;;;;;7.45;59.45;94437.91;5028813;28;20028;-77
2023/01/05 04:22:04;;;;;;;27.70;19.10;;;;;;;7.37;59.02;94427.91;5030803;28;20127;-77
2023/01/05 04:24:30;;;;;;;28.77;19.13;;;;;;;7.33;59.03;94435.63;5024075;28;20501;-77
2023/01/05 04:26:55;;;;;;;30.23;20.25;;;;;;;7.28;59.00;94419.78;5032871;28;20044;-77
2023/01/05 04:29:20;;;;;;;34.78;21.58;;;;;;;7.25;58.88;94409.75;5026334;28;20037;-77
2023/01/05 04:31:46;;;;;;;34.10;22.17;;;;;;;7.21;58.91;94422.75;5029497;28;20052;-77
2023/01/05 04:34:11;;;;;;;33.83;22.25;;;;;;;7.21;58.80;94421.97;5026759;28;20620;-76
2023/01/05 04:36:37;;;;;;;34.13;23.40;;;;;;;7.03;58.52;94404.91;5029188;28;20257;-77
2023/01/05 04:39:02;;;;;;;28.38;19.75;;;;;;;6.83;58.54;94376.75;5027164;28;20377;-78
2023/01/05 04:41:28;;;;;;;31.60;20.60;;;;;;;7.18;57.53;94427.81;5027298;28;20064;-77
2023/01/05 04:43:53;;;;;;;33.97;20.30;;;;;;;7.04;58.16;94422.38;5027845;28;20044;-77
2023/01/05 04:46:18;;;;;;;35.72;20.85;;;;;;;6.81;58.25;94413.25;5029160;28;20021;-77
2023/01/05 04:48:44;;;;;;;30.42;21.20;;;;;;;6.92;57.67;94432.47;5031821;28;20244;-76
2023/01/05 04:51:09;;;;;;;33.42;20.83;;;;;;;6.82;57.86;94425.41;5028474;28;20493;-77
2023/01/05 04:53:34;;;;;;;32.03;22.17;;;;;;;6.70;58.32;94422.28;5033152;28;20075;-77
2023/01/05 04:56:00;;;;;;;33.13;22.23;;;;;;;6.67;58.29;94438.72;5028331;28;20049;-78
2023/01/05 04:58:25;;;;;;;38.45;22.42;;;;;;;6.59;58.50;94431.38;5027496;28;20103;-77
2023/01/05 05:00:50;;;;;;;32.75;21.40;;;;;;;6.50;58.43;94422.44;5029019;28;20108;-77
2023/01/05 05:03:16;;;;;;;33.33;22.55;;;;;;;6.58;58.67;94453.56;5028149;28;20067;-76
2023/01/05 05:05:41;;;;;;;34.60;23.23;;;;;;;6.42;59.44;94439.63;5033576;28;20033;-76
2023/01/05 05:08:07;;;;;;;35.47;21.83;;;;;;;6.49;59.38;94451.75;5031110;28;20629;-76
2023/01/05 05:10:32;;;;;;;34.60;23.27;;;;;;;6.34;59.86;94419.06;5028049;28;20035;-76
2023/01/05 05:12:58;;;;;;;35.30;22.27;;;;;;;6.48;59.94;94445.69;5030575;28;20023;-76
2023/01/05 05:15:23;;;;;;;34.53;22.70;;;;;;;6.36;60.05;94434.66;5025639;28;20116;-76
2023/01/05 05:17:49;;;;;;;33.20;19.92;;;;;;;6.45;59.99;94454.16;5030945;28;20049;-77
2023/01/05 05:20:14;;;;;;;28.77;18.38;;;;;;;6.46;59.97;94458.38;5022028;28;20626;-77
2023/01/05 05:22:40;;;;;;;28.10;19.10;;;;;;;6.36;60.47;94442.59;5024164;28;20107;-76
2023/01/05 05:25:06;;;;;;;31.42;19.77;;;;;;;6.22;60.76;94437.06;5025310;28;20111;-76
2023/01/05 05:27:32;;;;;;;31.08;19.98;;;;;;;6.49;60.08;94451.75;5025413;28;20045;-77
2023/01/05 05:29:57;;;;;;;28.70;18.52;;;;;;;6.40;60.03;94433.06;5026389;28;20033;-76
2023/01/05 05:32:22;;;;;;;26.17;18.05;;;;;;;6.48;60.04;94448.31;5028110;28;20046;-76
2023/01/05 05:34:48;;;;;;;24.25;16.10;;;;;;;6.38;60.04;94435.16;5024760;28;20042;-76
2023/01/05 05:37:13;;;;;;;23.02;15.70;;;;;;;6.32;59.84;94420.38;5023863;28;20559;-77
2023/01/05 05:39:39;;;;;;;25.95;16.60;;;;;;;6.07;59.87;94391.44;5022248;28;20037;-76
2023/01/05 05:42:04;;;;;;;22.02;16.42;;;;;;;6.47;59.54;94432.72;5023506;28;20599;-76
2023/01/05 05:44:29;;;;;;;27.45;16.58;;;;;;;6.39;59.23;94428.81;5024001;28;20516;-76
2023/01/05 05:46:55;;;;;;;26.25;16.70;;;;;;;6.34;59.65;94416.44;5024988;28;20051;-77
2023/01/05 05:49:20;;;;;;;28.20;17.02;;;;;;;6.22;59.58;94405.38;5026917;28;20028;-77
2023/01/05 05:51:45;;;;;;;27.80;18.70;;;;;;;6.39;59.49;94415.59;5026439;28;20089;-76
2023/01/05 05:54:11;;;;;;;28.55;17.15;;;;;;;6.28;59.01;94391.09;5022600;28;20195;-76
2023/01/05 05:56:36;;;;;;;29.10;18.40;;;;;;;6.20;59.38;94396.16;5017212;28;20196;-76
2023/01/05 05:59:02;;;;;;;28.92;17.75;;;;;;;6.10;59.33;94388.25;5024171;28;20032;-76
2023/01/05 06:01:28;;;;;;;28.05;18.13;;;;;;;6.16;59.34;94393.28;5025559;28;20119;-76
2023/01/05 06:03:53;;;;;;;26.48;17.48;;;;;;;6.06;58.97;94374.78;5024584;28;20025;-76
2023/01/05 06:06:18;;;;;;;25.45;16.85;;;;;;;6.17;59.04;94388.75;5023642;28;20627;-77
2023/01/05 06:08:44;;;;;;;23.50;16.42;;;;;;;6.13;58.62;94390.31;5036129;28;20079;-76
2023/01/05 06:11:09;;;;;;;28.05;18.13;;;;;;;6.21;57.95;94395.09;5020619;28;20063;-76
2023/01/05 06:13:35;;;;;;;31.30;19.30;;;;;;;6.07;58.48;94394.06;5021116;28;20040;-77
2023/01/05 06:16:00;;;;;;;27.27;18.20;;;;;;;5.97;58.39;94392.22;5022949;28;20341;-77
2023/01/05 06:18:27;;;;;;;27.63;19.55;;;;;;;5.90;58.07;94387.25;5022694;28;20152;-77
2023/01/05 06:20:53;;;;;;;31.70;20.58;;;;;;;5.92;58.21;94382.47;5024184;28;20485;-75
2023/01/05 06:23:18;;;;;;;36.88;22.83;;;;;;;5.81;58.63;94375.69;5022360;28;20436;-77
2023/01/05 06:25:44;;;;;;;50.50;30.10;;;;;;;5.87;59.07;94398.34;5023150;28;20033;-77
2023/01/05 06:28:09;;;;;;;45.25;30.80;;;;;;;5.79;59.12;94369.88;5024313;28;20028;-76
2023/01/05 06:30:35;;;;;;;45.40;30.27;;;;;;;5.67;59.34;94361.47;5025172;28;20094;-76
2023/01/05 06:33:00;;;;;;;45.78;30.08;;;;;;;5.61;59.68;94346.72;5022905;28;20237;-75
2023/01/05 06:35:25;;;;;;;36.97;23.27;;;;;;;5.88;59.69;94373.53;5021384;28;20502;-76
2023/01/05 06:37:52;;;;;;;36.00;24.55;;;;;;;5.98;59.08;94377.97;5019633;28;20049;-76
2023/01/05 06:40:18;;;;;;;35.45;24.52;;;;;;;5.96;58.94;94380.91;5023844;28;20025;-76
2023/01/05 06:42:43;;;;;;;30.95;20.98;;;;;;;5.77;58.96;94361.44;5021081;28;20200;-76
2023/01/05 06:45:12;;;;;;;33.67;22.45;;;;;;;5.91;58.59;94356.38;5022061;28;20025;-76
2023/01/05 06:47:38;;;;;;;33.20;22.42;;;;;;;5.98;58.44;94372.69;5020596;28;20551;-76
2023/01/05 06:50:04;;;;;;;28.30;19.92;;;;;;;5.84;58.54;94359.28;5023829;28;20033;-77
2023/01/05 06:52:29;;;;;;;24.98;16.70;;;;;;;5.76;58.90;94357.22;5022777;28;20033;-76
2023/01/05 06:54:55;;;;;;;27.40;19.15;;;;;;;5.80;59.21;94363.53;5022154;28;20033;-77
2023/01/05 06:57:20;;;;;;;27.15;18.90;;;;;;;5.84;59.31;94372.50;5029467;28;20132;-76
2023/01/05 06:59:46;;;;;;;27.60;17.63;;;;;;;5.91;59.51;94380.94;5031088;28;20049;-77
2023/01/05 07:02:14;;;;;;;26.88;17.98;;;;;;;6.06;59.42;94390.63;5022864;28;20037;-76
2023/01/05 07:04:39;;;;;;;33.50;21.00;;;;;;;6.09;59.52;94373.44;5023944;28;20048;-76
2023/01/05 07:07:05;;;;;;;33.30;23.33;;;;;;;6.09;60.02;94384.81;5020660;28;20129;-76
2023/01/05 07:09:30;;;;;;;39.88;24.80;;;;;;;6.06;60.33;94374.00;5020718;28;20041;-77
2023/01/05 07:11:55;;;;;;;40.80;26.42;;;;;;;6.10;60.55;94372.41;5024070;28;20163;-76
2023/01/05 07:14:21;;;;;;;37.30;24.92;;;;;;;6.19;60.83;94376.88;5025197;28;20048;-77
2023/01/05 07:16:46;;;;;;;38.53;25.05;;;;;;;6.26;60.70;94381.88;5029263;28;20562;-76
2023/01/05 07:19:12;;;;;;;31.60;19.58;;;;;;;6.19;60.52;94371.59;5026724;28;20343;-76
2023/01/05 07:21:37;;;;;;;32.38;18.85;;;;;;;6.24;60.57;94382.13;5023346;28;20041;-76
2023/01/05 07:24:03;;;;;;;32.55;22.38;;;;;;;6.31;60.23;94379.19;5026462;28;20094;-76
2023/01/05 07:26:28;;;;;;;40.08;26.55;;;;;;;6.17;60.37;94359.69;5028126;28;20041;-76
2023/01/05 07:28:54;;;;;;;42.80;28.60;;;;;;;6.13;60.57;94343.59;5024793;28;20094;-76
2023/01/05 07:31:19;;;;;;;50.22;38.80;;;;;;;6.33;60.18;94366.50;5021701;28;20056;-76
2023/01/05 07:33:45;;;;;;;45.13;31.35;;;;;;;6.41;60.34;94368.56;5018959;28;20053;-76
2023/01/05 07:36:11;;;;;;;43.28;28.88;;;;;;;6.39;60.37;94352.19;5019222;28;20052;-76
2023/01/05 07:38:36;;;;;;;42.45;29.08;;;;;;;6.48;60.48;94355.03;5019446;28;20046;-77
2023/01/05 07:41:02;;;;;;;43.22;28.48;;;;;;;6.30;60.79;94327.44;5019299;28;20372;-77
2023/01/05 07:43:28;;;;;;;41.00;25.35;;;;;;;6.48;61.06;94353.19;5021694;28;20029;-75
2023/01/05 07:46:01;;;;;;;37.63;26.45;;;;;;;6.46;61.29;94347.38;5019819;28;20051;-76
2023/01/05 07:48:27;;;;;;;36.33;24.08;;;;;;;6.39;61.32;94325.78;5021922;28;20464;-76
2023/01/05 07:51:00;;;;;;;36.63;24.20;;;;;;;6.56;61.06;94351.81;5018676;28;20051;-76
2023/01/05 07:53:26;;;;;;;34.03;24.00;;;;;;;6.49;61.34;94335.50;5020313;28;20143;-76
2023/01/05 07:55:59;;;;;;;40.05;25.95;;;;;;;6.44;62.06;94325.75;5020889;28;20520;-75
2023/01/05 07:58:26;;;;;;;37.42;24.98;;;;;;;6.69;62.17;94340.66;5019849;28;20025;-76
2023/01/05 08:00:51;;;;;;;40.72;26.98;;;;;;;6.60;63.32;94340.44;5025640;28;20044;-76
2023/01/05 08:03:17;;;;;;;55.08;27.95;;;;;;;5.89;66.92;94327.59;5022518;28;20045;-77
2023/01/05 08:05:42;;;;;;;41.00;25.67;;;;;;;5.65;69.00;94339.81;5029642;28;20042;-76
2023/01/05 08:08:07;;;;;;;49.97;27.40;;;;;;;5.78;68.93;94344.53;5023182;28;20041;-76
2023/01/05 08:10:33;;;;;;;42.65;25.92;;;;;;;5.69;68.48;94327.66;5020906;28;20696;-75
2023/01/05 08:15:47;;;;;;;44.50;26.83;;;;;;;5.48;69.71;94334.09;5019570;28;20048;-76
2023/01/05 08:18:12;;;;;;;47.55;28.35;;;;;;;5.27;70.92;94335.19;5020425;28;20049;-76
2023/01/05 08:20:37;;;;;;;47.97;27.92;;;;;;;5.10;72.19;94332.81;5021994;28;20605;-76
2023/01/05 08:23:03;;;;;;;41.13;25.52;;;;;;;5.10;71.62;94320.44;5020341;28;20672;-76
2023/01/05 08:25:28;;;;;;;40.30;25.55;;;;;;;5.02;72.05;94314.91;5022584;28;20294;-77
2023/01/05 08:27:54;;;;;;;42.03;27.20;;;;;;;4.65;72.84;94323.09;5024093;28;20045;-76
2023/01/05 08:30:19;;;;;;;43.42;25.05;;;;;;;5.13;72.26;94332.31;5023826;28;20033;-76
2023/01/05 08:32:44;;;;;;;43.35;26.02;;;;;;;4.76;72.36;94308.88;5019244;28;20064;-75
2023/01/05 08:35:10;;;;;;;35.58;24.25;;;;;;;4.82;72.83;94338.66;5025952;28;20041;-76
2023/01/05 08:37:35;;;;;;;40.17;25.17;;;;;;;4.91;72.59;94324.69;5022993;28;20067;-76
2023/01/05 08:40:01;;;;;;;42.70;24.85;;;;;;;5.15;71.23;94319.63;5028514;28;20090;-77
2023/01/05 08:42:26;;;;;;;43.67;25.38;;;;;;;5.50;70.75;94334.59;5023638;28;20531;-77
2023/01/05 08:44:52;;;;;;;40.72;24.98;;;;;;;4.72;72.87;94326.25;5029218;28;20041;-76
2023/01/05 08:47:17;;;;;;;43.47;25.33;;;;;;;5.00;72.66;94333.63;5028908;28;20064;-76
2023/01/05 08:49:42;;;;;;;45.08;26.98;;;;;;;5.04;72.46;94336.53;5030200;28;20041;-76
2023/01/05 08:52:08;;;;;;;39.35;26.35;;;;;;;5.29;71.61;94325.13;5025907;28;20025;-77
2023/01/05 08:54:34;;;;;;;42.70;25.40;;;;;;;5.81;69.67;94324.72;5028665;28;20029;-77
2023/01/05 08:57:00;;;;;;;44.35;25.73;;;;;;;5.41;70.53;94317.75;5025551;28;20034;-75
2023/01/05 08:59:25;;;;;;;43.58;26.48;;;;;;;5.02;71.99;94293.81;5026941;28;20530;-77
2023/01/05 09:01:50;;;;;;;48.85;29.77;;;;;;;4.92;71.95;94296.47;5029407;28;20060;-76
2023/01/05 09:04:16;;;;;;;43.88;27.23;;;;;;;5.04;71.91;94297.75;5027223;28;20354;-76
2023/01/05 09:06:41;;;;;;;42.33;26.10;;;;;;;5.40;70.99;94292.41;5026658;28;20037;-76
2023/01/05 09:09:07;;;;;;;40.78;26.50;;;;;;;5.32;70.09;94304.31;5027401;28;20037;-76
2023/01/05 09:11:33;;;;;;;43.95;26.17;;;;;;;5.51;70.00;94294.75;5024773;28;20033;-76
2023/01/05 09:14:02;;;;;;;39.92;25.00;;;;;;;5.58;69.36;94273.34;5029125;28;20037;-77
2023/01/05 09:16:31;;;;;;;45.28;27.30;;;;;;;5.42;70.50;94269.22;5024141;28;20264;-76
2023/01/05 09:18:58;;;;;;;43.72;26.52;;;;;;;5.93;69.01;94275.81;5026010;28;20036;-76
2023/01/05 09:21:24;;;;;;;39.50;24.08;;;;;;;5.83;67.81;94262.69;5025663;28;20416;-76
2023/01/05 09:23:50;;;;;;;39.58;25.15;;;;;;;5.74;67.74;94240.56;5023134;28;20044;-76
2023/01/05 09:26:16;;;;;;;40.22;24.15;;;;;;;5.57;68.95;94232.22;5025308;28;20083;-76
2023/01/05 09:28:43;;;;;;;34.97;22.95;;;;;;;6.10;67.63;94233.22;5027335;28;20044;-77
2023/01/05 09:31:20;;;;;;;35.15;22.10;;;;;;;5.87;66.61;94226.75;5028365;28;20674;-75
2023/01/05 09:33:46;;;;;;;36.35;22.15;;;;;;;5.53;68.60;94216.13;5022867;28;20064;-76
2023/01/05 09:36:13;;;;;;;37.97;22.58;;;;;;;4.92;70.78;94214.75;5023087;28;20776;-75
2023/01/05 09:38:39;;;;;;;40.42;24.52;;;;;;;4.77;72.18;94215.59;5024725;28;20048;-76
2023/01/05 09:41:13;;;;;;;38.90;25.48;;;;;;;4.76;72.26;94231.66;5024300;28;20030;-76
2023/01/05 09:43:42;;;;;;;40.63;24.88;;;;;;;5.19;70.19;94198.63;5026686;28;20075;-76
2023/01/05 09:46:22;;;;;;;39.80;23.85;;;;;;;5.83;67.92;94212.53;5023616;28;20492;-76
2023/01/05 09:48:58;;;;;;;44.28;26.58;;;;;;;5.90;67.27;94185.84;5024304;28;20045;-76
2023/01/05 09:51:24;;;;;;;48.85;27.90;;;;;;;5.65;68.75;94197.31;5026410;28;20128;-76
2023/01/05 09:53:50;;;;;;;47.17;29.48;;;;;;;5.40;69.04;94187.69;5023867;28;20056;-76
2023/01/05 09:56:24;;;;;;;44.95;26.58;;;;;;;5.01;70.92;94187.59;5027057;28;20529;-77
2023/01/05 09:58:51;;;;;;;33.47;20.90;;;;;;;5.44;67.66;94162.34;5031677;28;20852;-77
2023/01/05 10:01:19;;;;;;;35.42;22.27;;;;;;;5.65;68.08;94189.41;5025506;28;20443;-76
2023/01/05 10:03:59;;;;;;;37.53;22.70;;;;;;;5.86;65.70;94153.91;5024375;28;20120;-76
2023/01/05 10:06:31;;;;;;;33.03;20.77;;;;;;;6.14;64.94;94168.22;5024311;28;20033;-77
2023/01/05 10:08:57;;;;;;;39.05;22.23;;;;;;;6.55;63.18;94166.06;5026247;28;20710;-76
2023/01/05 10:14:23;;;;;;;33.72;20.63;;;;;;;6.51;63.31;94159.75;5026235;28;20044;-76
2023/01/05 10:16:48;;;;;;;29.55;20.52;;;;;;;5.81;65.21;94164.50;5025688;28;20225;-76
2023/01/05 10:19:17;;;;;;;36.75;22.20;;;;;;;5.98;65.38;94162.28;5026814;28;20108;-75
2023/01/05 10:22:04;;;;;;;30.38;21.27;;;;;;;5.83;65.37;94158.94;5026746;28;20064;-76
2023/01/05 10:24:56;;;;;;;36.95;21.67;;;;;;;6.04;64.86;94160.38;5025119;28;20041;-77
2023/01/05 10:27:32;;;;;;;33.25;20.85;;;;;;;5.75;65.03;94130.50;5009111;28;20508;-75
2023/01/05 10:30:13;;;;;;;36.45;20.77;;;;;;;6.14;64.75;94164.78;5024278;28;20063;-76
2023/01/05 10:32:50;;;;;;;34.67;21.42;;;;;;;6.19;63.64;94151.59;5032443;28;20469;-76
2023/01/05 10:35:18;;;;;;;34.75;20.45;;;;;;;6.28;63.71;94140.13;5025045;28;20064;-76
2023/01/05 10:37:54;;;;;;;35.92;22.08;;;;;;;6.33;63.17;94139.31;5022073;28;20444;-76
2023/01/05 10:40:41;;;;;;;39.70;21.30;;;;;;;6.73;61.62;94138.13;5023824;28;20024;-77
2023/01/05 10:43:37;;;;;;;26.80;17.85;;;;;;;6.41;62.05;94138.69;5023744;28;20100;-76
2023/01/05 10:46:03;;;;;;;27.45;18.35;;;;;;;6.12;62.71;94137.88;5022502;28;20654;-76
2023/01/05 10:48:33;;;;;;;27.17;17.98;;;;;;;6.36;62.30;94104.44;5024672;28;20134;-77
2023/01/05 10:50:59;;;;;;;27.52;19.42;;;;;;;6.63;61.26;94112.59;5025321;28;20049;-76
2023/01/05 10:53:27;;;;;;;27.55;19.33;;;;;;;6.44;62.10;94111.72;5023277;28;20453;-76
2023/01/05 10:55:55;;;;;;;32.60;19.98;;;;;;;6.51;63.91;94112.16;5027624;28;20041;-75
2023/01/05 10:58:33;;;;;;;28.63;18.77;;;;;;;6.81;61.22;94096.00;5026860;28;20043;-76
2023/01/05 11:01:05;;;;;;;36.90;20.42;;;;;;;6.06;63.78;94109.94;5025964;28;20056;-75
2023/01/05 11:03:42;;;;;;;28.95;19.25;;;;;;;6.65;62.80;94099.88;5023417;28;20050;-75
2023/01/05 11:06:19;;;;;;;29.98;18.77;;;;;;;7.16;61.42;94078.13;5025342;28;20628;-75
2023/01/05 11:08:45;;;;;;;29.35;19.52;;;;;;;7.14;60.34;94077.63;5034490;28;20536;-75
2023/01/05 11:11:23;;;;;;;28.77;19.80;;;;;;;7.26;59.50;94068.19;5028237;28;20525;-75
2023/01/05 11:13:51;;;;;;;31.15;19.80;;;;;;;7.46;58.64;94080.34;5027767;28;20138;-75
2023/01/05 11:16:20;;;;;;;27.88;19.70;;;;;;;7.70;57.64;94075.75;5026856;28;20484;-75
2023/01/05 11:18:59;;;;;;;29.42;19.60;;;;;;;7.23;58.81;94081.22;5022578;28;20492;-75
2023/01/05 11:21:44;;;;;;;30.00;20.50;;;;;;;7.20;59.69;94081.75;5022949;28;21457;-76
2023/01/05 11:24:28;;;;;;;30.20;20.05;;;;;;;6.86;59.89;94058.91;5022323;28;20052;-76
2023/01/05 11:27:23;;;;;;;33.83;21.45;;;;;;;6.95;60.58;94079.44;5019993;28;21447;-75
2023/01/05 11:30:11;;;;;;;30.02;19.15;;;;;;;6.85;60.19;94069.75;5032003;28;20055;-76
2023/01/05 11:32:39;;;;;;;28.55;19.17;;;;;;;7.23;58.98;94081.22;5022650;28;20041;-75
2023/01/05 11:35:19;;;;;;;33.03;19.90;;;;;;;6.81;59.62;94045.75;5023931;28;20049;-76
2023/01/05 11:37:45;;;;;;;31.80;19.55;;;;;;;7.35;58.63;94036.56;5019213;28;20041;-75
2023/01/05 11:40:18;;;;;;;29.10;18.63;;;;;;;7.64;57.06;94068.97;5022409;28;20083;-75
2023/01/05 11:42:44;;;;;;;31.90;19.33;;;;;;;7.44;57.50;94058.66;5020768;28;20523;-75
2023/01/05 11:45:27;;;;;;;26.35;18.30;;;;;;;7.78;56.09;94055.03;5024854;28;20044;-76
2023/01/05 11:47:58;;;;;;;27.67;18.58;;;;;;;7.01;58.07;94057.94;5022066;28;20045;-75
2023/01/05 11:50:26;;;;;;;27.27;16.92;;;;;;;6.93;58.19;94052.50;5021030;28;20295;-75
2023/01/05 11:53:01;;;;;;;28.83;17.23;;;;;;;7.16;57.71;94035.78;5024082;28;20659;-75
2023/01/05 11:55:33;;;;;;;30.15;19.15;;;;;;;7.46;57.45;94043.28;5017486;28;20087;-75
2023/01/05 11:58:16;;;;;;;26.50;17.08;;;;;;;7.46;56.95;94038.00;5022890;28;20017;-75
2023/01/05 12:01:10;;;;;;;28.55;18.55;;;;;;;7.43;57.07;94049.19;5016968;28;20465;-76
2023/01/05 12:03:48;;;;;;;27.08;17.67;;;;;;;7.56;56.80;94047.66;5027358;28;20029;-76
2023/01/05 12:06:26;;;;;;;26.30;18.52;;;;;;;7.76;56.26;94028.06;5020115;28;20040;-75
2023/01/05 12:09:01;;;;;;;27.17;17.92;;;;;;;8.39;55.43;94050.25;5027910;28;20028;-76
2023/01/05 12:11:32;;;;;;;28.98;17.98;;;;;;;8.58;55.11;94000.59;5023783;28;21092;-75